Aérodrome :
LOGIN :

S'inscrire | Disclaimer

   EN    FR    IT 

 










Légende :    VFR   VFR Marginal   IFR   IFR Intensif   IFR Très Intensif
Visi : 
Plafond : 
>= 8 km
>= 3000ft
5 à 8 km
1000 à 3000 ft
1500m à 5 km
500 à 1000 ft
800 à 1500m
200 à 500 ft
< 800m
< 200 ft
Symboles :   Orages  Brouillard  Fortes neiges  Fortes précipitations  Vent > 20 kt
SIGMETs :   Divers  Orages  Givrage  Turbulence  Onde Orograph.  Cendres Volcan.






- Altitude de l'aérodrome : 256 ft
- Code IATA : CFR


LFRK - Caen

DERNIER METAR :
  • 161800Z AUTO 29009KT 9999 BKN028 OVC110 08/07 Q1019 TEMPO BKN010

METARs EXPIRÉS :
  • 161730Z AUTO 30010KT 9999 SCT026 OVC110 08/06 Q1019 TEMPO BKN010
  • 161700Z AUTO 30010KT 9999 FEW011 SCT025 OVC110 08/07 Q1019 TEMPO BKN010
  • 161630Z AUTO 28009KT 9999 BKN010 OVC014 08/07 Q1019 NOSIG
  • 161600Z AUTO 25009KT 9999 BKN010 BKN019 OVC098 08/07 Q1018 TEMPO 2000 RA BKN003
  • 161530Z AUTO 26011KT 9999 BKN008 BKN027 BKN078 08/07 Q1018 TEMPO 2000 RA BKN010

TAF TAF LFRK
Valide du 16 à 15h jusqu'au 17 à 00h UTC


161400Z 1615/1624 22015G25KT 9999 OVC013
TEMPO 1615/1617 3000 RADZ BKN005
PROB30
TEMPO 1615/1617 2000 RA BKN003
BECMG 1615/1617 28010KT
BECMG 1617/1619 BKN020
PROB30
TEMPO 1617/1624 BKN010
Météo : +33 2 31 26 68 11



MET'MAP, la Météo Aéronautique d'un coup d'oeil ! - Copyright ORBIFLY Décembre 2007 - Disclaimer

ORBIFLY MET'MAP TEAM :

Programmation & Développement : Alexandra Zaïnal
Sur une idée originale de : Baudouin d'Aumeries
Assistance à la programmation : Marc-Olivier Méhu
Soutien technique & logistique : Manuel Goepfert

Contact : metmap@orbifly.com




SOURCES & CREDITS :

   NOAA